BVX594Y EGLL-LCPH
Flight info
| Callsign | BVX594Y |
|---|---|
| Flight time | N/A |
| Altitude | 37000 |
| Route | DET L6 DVR UL9 KONAN UL607 MATUG DCT GUBAX DCT BOREP DCT ENITA DCT PEPIK DCT BERVA DCT ERGOM DCT TIMUR DCT ADORU UN739 EKI UW81 YAYLA UL854 KULAR UT39 TOMBI/N0445F330 M855 DASNI M32 TOBAL |
| Aircraft | A320/M-SDE3FGHIRWY/LB1 |
Departure
| Time | N/A |
|---|---|
| Airport | London Heathrow Airport (EGLL) |
Arrival
| Time | 2026-05-04 19:49 |
|---|---|
| Airport | Paphos International Airport (LCPH) |
| Time | Latitude | Longitude | Altitude | Speed | Heading |
|---|---|---|---|---|---|
| 2026-05-04 19:21 | 36.07112 | 30.79714 | 36934 ft | 479 kts | 155° |
| 2026-05-04 19:21 | 36.04099 | 30.81318 | 36937 ft | 475 kts | 164° |
| 2026-05-04 19:21 | 36.00903 | 30.82415 | 36242 ft | 476 kts | 172° |
| 2026-05-04 19:22 | 35.97596 | 30.82884 | 35298 ft | 477 kts | 181° |
| 2026-05-04 19:22 | 35.94269 | 30.83047 | 34476 ft | 480 kts | 181° |
| 2026-05-04 19:22 | 35.90963 | 30.83225 | 33655 ft | 481 kts | 180° |
| 2026-05-04 19:22 | 35.87626 | 30.83423 | 33103 ft | 475 kts | 180° |
| 2026-05-04 19:23 | 35.84329 | 30.83632 | 32879 ft | 471 kts | 180° |
| 2026-05-04 19:23 | 35.77802 | 30.84044 | 32921 ft | 470 kts | 180° |
| 2026-05-04 19:24 | 35.71299 | 30.84442 | 32866 ft | 470 kts | 180° |
| 2026-05-04 19:24 | 35.68012 | 30.84747 | 31847 ft | 478 kts | 173° |
| 2026-05-04 19:24 | 35.64757 | 30.85819 | 30778 ft | 487 kts | 159° |
| 2026-05-04 19:24 | 35.61740 | 30.87739 | 29879 ft | 488 kts | 146° |
| 2026-05-04 19:25 | 35.59154 | 30.90363 | 28917 ft | 487 kts | 133° |
| 2026-05-04 19:25 | 35.57055 | 30.93632 | 28092 ft | 483 kts | 122° |
| 2026-05-04 19:25 | 35.55237 | 30.97034 | 27289 ft | 480 kts | 123° |
| 2026-05-04 19:25 | 35.53390 | 31.00480 | 26446 ft | 478 kts | 123° |
| 2026-05-04 19:26 | 35.51562 | 31.03886 | 25742 ft | 474 kts | 123° |
| 2026-05-04 19:26 | 35.49776 | 31.07215 | 25063 ft | 471 kts | 123° |
| 2026-05-04 19:26 | 35.47975 | 31.10568 | 24393 ft | 467 kts | 123° |
| 2026-05-04 19:26 | 35.46189 | 31.13889 | 23728 ft | 464 kts | 123° |
| 2026-05-04 19:27 | 35.44417 | 31.17182 | 23001 ft | 462 kts | 123° |
| 2026-05-04 19:27 | 35.42648 | 31.20463 | 22296 ft | 458 kts | 124° |
| 2026-05-04 19:27 | 35.40924 | 31.23664 | 21879 ft | 449 kts | 124° |
| 2026-05-04 19:27 | 35.39215 | 31.26840 | 21449 ft | 441 kts | 124° |
| 2026-05-04 19:28 | 35.37540 | 31.29946 | 21021 ft | 433 kts | 124° |
| 2026-05-04 19:28 | 35.35888 | 31.33010 | 20618 ft | 428 kts | 124° |
| 2026-05-04 19:28 | 35.34244 | 31.36055 | 20209 ft | 425 kts | 124° |
| 2026-05-04 19:28 | 35.32629 | 31.39038 | 19802 ft | 423 kts | 124° |
| 2026-05-04 19:29 | 35.31000 | 31.42042 | 19399 ft | 421 kts | 124° |
| 2026-05-04 19:29 | 35.29373 | 31.45035 | 18993 ft | 419 kts | 125° |
| 2026-05-04 19:29 | 35.27780 | 31.47970 | 18594 ft | 417 kts | 125° |
| 2026-05-04 19:29 | 35.26168 | 31.50938 | 18191 ft | 416 kts | 125° |
| 2026-05-04 19:30 | 35.24568 | 31.53879 | 17763 ft | 414 kts | 125° |
| 2026-05-04 19:30 | 35.23510 | 31.55820 | 17502 ft | 412 kts | 125° |
| 2026-05-04 19:30 | 35.21405 | 31.59678 | 16983 ft | 409 kts | 125° |
| 2026-05-04 19:30 | 35.20355 | 31.61601 | 16719 ft | 407 kts | 125° |
| 2026-05-04 19:31 | 35.18783 | 31.64482 | 16328 ft | 405 kts | 125° |
| 2026-05-04 19:31 | 35.16717 | 31.68270 | 15820 ft | 401 kts | 125° |
| 2026-05-04 19:31 | 35.15669 | 31.70190 | 15557 ft | 399 kts | 125° |
| 2026-05-04 19:31 | 35.14146 | 31.72976 | 15178 ft | 397 kts | 125° |
| 2026-05-04 19:32 | 35.12115 | 31.76687 | 14671 ft | 394 kts | 125° |
| 2026-05-04 19:32 | 35.11085 | 31.78565 | 14420 ft | 392 kts | 125° |
| 2026-05-04 19:32 | 35.09589 | 31.81292 | 14033 ft | 390 kts | 125° |
| 2026-05-04 19:32 | 35.08080 | 31.84045 | 13660 ft | 387 kts | 126° |
| 2026-05-04 19:33 | 35.06586 | 31.86768 | 13267 ft | 384 kts | 126° |
| 2026-05-04 19:33 | 35.05118 | 31.89438 | 12908 ft | 381 kts | 125° |
| 2026-05-04 19:33 | 35.03646 | 31.92113 | 12541 ft | 377 kts | 125° |
| 2026-05-04 19:33 | 35.02188 | 31.94770 | 12178 ft | 374 kts | 125° |
| 2026-05-04 19:34 | 35.00755 | 31.97374 | 11825 ft | 371 kts | 125° |
| 2026-05-04 19:34 | 34.99318 | 31.99986 | 11471 ft | 367 kts | 125° |
| 2026-05-04 19:34 | 34.97894 | 32.02570 | 11117 ft | 365 kts | 125° |
| 2026-05-04 19:34 | 34.96499 | 32.05097 | 10771 ft | 362 kts | 125° |
| 2026-05-04 19:35 | 34.95097 | 32.07631 | 10432 ft | 357 kts | 126° |
| 2026-05-04 19:35 | 34.93731 | 32.10100 | 10298 ft | 344 kts | 126° |
| 2026-05-04 19:35 | 34.92417 | 32.12478 | 10180 ft | 332 kts | 126° |
| 2026-05-04 19:35 | 34.91143 | 32.14780 | 10045 ft | 320 kts | 126° |
| 2026-05-04 19:36 | 34.89922 | 32.16981 | 9818 ft | 315 kts | 126° |
| 2026-05-04 19:36 | 34.88699 | 32.19179 | 9541 ft | 310 kts | 126° |
| 2026-05-04 19:36 | 34.87490 | 32.21348 | 9215 ft | 308 kts | 126° |
| 2026-05-04 19:36 | 34.86288 | 32.23505 | 8933 ft | 306 kts | 126° |
| 2026-05-04 19:37 | 34.85107 | 32.25624 | 8617 ft | 304 kts | 126° |
| 2026-05-04 19:37 | 34.83917 | 32.27757 | 8283 ft | 302 kts | 126° |
| 2026-05-04 19:37 | 34.82752 | 32.29847 | 7973 ft | 300 kts | 125° |
| 2026-05-04 19:37 | 34.81582 | 32.31946 | 7652 ft | 298 kts | 125° |
| 2026-05-04 19:38 | 34.80420 | 32.34028 | 7335 ft | 296 kts | 125° |
| 2026-05-04 19:38 | 34.79259 | 32.36110 | 7027 ft | 296 kts | 125° |
| 2026-05-04 19:38 | 34.78105 | 32.38181 | 6702 ft | 294 kts | 125° |
| 2026-05-04 19:38 | 34.76970 | 32.40215 | 6390 ft | 292 kts | 125° |
| 2026-05-04 19:39 | 34.75831 | 32.42256 | 6050 ft | 290 kts | 125° |
| 2026-05-04 19:39 | 34.74704 | 32.44268 | 5879 ft | 280 kts | 125° |
| 2026-05-04 19:39 | 34.73631 | 32.46183 | 5764 ft | 267 kts | 125° |
| 2026-05-04 19:39 | 34.72621 | 32.47988 | 5666 ft | 255 kts | 125° |
| 2026-05-04 19:40 | 34.71641 | 32.49744 | 5557 ft | 246 kts | 124° |
| 2026-05-04 19:40 | 34.70611 | 32.51391 | 5401 ft | 242 kts | 131° |
| 2026-05-04 19:40 | 34.69536 | 32.52915 | 5172 ft | 238 kts | 131° |
| 2026-05-04 19:40 | 34.68463 | 32.54437 | 4947 ft | 235 kts | 131° |
| 2026-05-04 19:41 | 34.67414 | 32.55926 | 4730 ft | 232 kts | 131° |
| 2026-05-04 19:41 | 34.66368 | 32.57416 | 4510 ft | 230 kts | 131° |
| 2026-05-04 19:41 | 34.65328 | 32.58895 | 4295 ft | 228 kts | 131° |
| 2026-05-04 19:41 | 34.64313 | 32.60336 | 4090 ft | 225 kts | 131° |
| 2026-05-04 19:42 | 34.63320 | 32.61745 | 3900 ft | 214 kts | 131° |
| 2026-05-04 19:42 | 34.62367 | 32.63099 | 3670 ft | 207 kts | 131° |
| 2026-05-04 19:42 | 34.61433 | 32.64433 | 3488 ft | 204 kts | 130° |
| 2026-05-04 19:42 | 34.60836 | 32.65902 | 3385 ft | 191 kts | 99° |
| 2026-05-04 19:43 | 34.60883 | 32.67473 | 3293 ft | 184 kts | 69° |
| 2026-05-04 19:43 | 34.61498 | 32.68788 | 3213 ft | 176 kts | 41° |
| 2026-05-04 19:43 | 34.62471 | 32.69592 | 3120 ft | 168 kts | 15° |
| 2026-05-04 19:43 | 34.63592 | 32.69816 | 3026 ft | 161 kts | 351° |
| 2026-05-04 19:44 | 34.64651 | 32.69481 | 2942 ft | 156 kts | 328° |
| 2026-05-04 19:44 | 34.65498 | 32.68684 | 2865 ft | 152 kts | 308° |
| 2026-05-04 19:44 | 34.65997 | 32.67583 | 2770 ft | 152 kts | 284° |
| 2026-05-04 19:44 | 34.66313 | 32.66360 | 2625 ft | 152 kts | 291° |
| 2026-05-04 19:45 | 34.66699 | 32.65175 | 2594 ft | 151 kts | 291° |
| 2026-05-04 19:45 | 34.67076 | 32.63979 | 2456 ft | 152 kts | 290° |
| 2026-05-04 19:45 | 34.67439 | 32.62808 | 2275 ft | 152 kts | 289° |
| 2026-05-04 19:45 | 34.67810 | 32.61604 | 2072 ft | 152 kts | 290° |
| 2026-05-04 19:46 | 34.68179 | 32.60398 | 1876 ft | 153 kts | 290° |
| 2026-05-04 19:46 | 34.68554 | 32.59176 | 1677 ft | 154 kts | 289° |
| 2026-05-04 19:46 | 34.68923 | 32.57968 | 1464 ft | 150 kts | 290° |
| 2026-05-04 19:46 | 34.69268 | 32.56840 | 1281 ft | 136 kts | 289° |
| 2026-05-04 19:47 | 34.69592 | 32.55777 | 1082 ft | 132 kts | 290° |
| 2026-05-04 19:47 | 34.69910 | 32.54736 | 906 ft | 134 kts | 290° |
| 2026-05-04 19:47 | 34.70236 | 32.53664 | 722 ft | 137 kts | 290° |
| 2026-05-04 19:47 | 34.70569 | 32.52565 | 552 ft | 139 kts | 291° |
| 2026-05-04 19:48 | 34.70906 | 32.51451 | 364 ft | 140 kts | 290° |
| 2026-05-04 19:48 | 34.71244 | 32.50336 | 169 ft | 141 kts | 291° |
| 2026-05-04 19:48 | 34.71586 | 32.49243 | 42 ft | 133 kts | 291° |
| 2026-05-04 19:48 | 34.71818 | 32.48477 | 44 ft | 53 kts | 290° |
| 2026-05-04 19:49 | 34.71912 | 32.48174 | 45 ft | 26 kts | 290° |
| 2026-05-04 19:49 | 34.71953 | 32.47982 | 45 ft | 13 kts | 283° |
| 2026-05-04 19:49 | 34.71975 | 32.47968 | 45 ft | 1 kts | 78° |
| 2026-05-04 19:49 | 34.71970 | 32.47984 | 43 ft | 5 kts | 108° |
| 2026-05-04 19:50 | 34.71953 | 32.48043 | 43 ft | 10 kts | 109° |
| 2026-05-04 19:50 | 34.71924 | 32.48144 | 44 ft | 15 kts | 109° |
| 2026-05-04 19:50 | 34.71883 | 32.48282 | 44 ft | 20 kts | 113° |
| 2026-05-04 19:50 | 34.71838 | 32.48403 | 44 ft | 11 kts | 117° |
| 2026-05-04 19:51 | 34.71758 | 32.48402 | 44 ft | 13 kts | 201° |
| 2026-05-04 19:51 | 34.71674 | 32.48365 | 44 ft | 12 kts | 199° |
| 2026-05-04 19:51 | 34.71630 | 32.48345 | 44 ft | 5 kts | 201° |
| 2026-05-04 19:51 | 34.71599 | 32.48330 | 44 ft | 4 kts | 201° |
| 2026-05-04 19:52 | 34.71575 | 32.48318 | 44 ft | 3 kts | 201° |
| 2026-05-04 19:52 | 34.71556 | 32.48309 | 44 ft | 3 kts | 201° |
| 2026-05-04 19:52 | 34.71526 | 32.48295 | 41 ft | 9 kts | 201° |
| 2026-05-04 19:52 | 34.71462 | 32.48265 | 44 ft | 10 kts | 201° |
| 2026-05-04 19:53 | 34.71410 | 32.48276 | 44 ft | 10 kts | 133° |
| 2026-05-04 19:53 | 34.71376 | 32.48380 | 44 ft | 16 kts | 110° |
| 2026-05-04 19:53 | 34.71347 | 32.48501 | 44 ft | 15 kts | 88° |
| 2026-05-04 19:53 | 34.71387 | 32.48619 | 44 ft | 14 kts | 65° |
| 2026-05-04 19:54 | 34.71396 | 32.48695 | 44 ft | 8 kts | 118° |
| 2026-05-04 19:54 | 34.71359 | 32.48728 | 44 ft | 4 kts | 153° |
| 2026-05-04 19:54 | 34.71340 | 32.48738 | 44 ft | 2 kts | 154° |
| 2026-05-04 19:54 | 34.71331 | 32.48743 | 44 ft | 1 kts | 154° |
| 2026-05-04 19:55 | 34.71328 | 32.48745 | 44 ft | 1 kts | 154° |
| 2026-05-04 19:55 | 34.71326 | 32.48746 | 44 ft | 0 kts | 154° |